Time;durP1;ratioP1;P1;durP2;ratioP2;P2;SDS_P1;SDS_P2;PMS_P1;PMS_P2;Temp;Humidity;BMP_temperature;BMP_pressure;BME280_temperature;BME280_humidity;BME280_pressure;Samples;Min_cycle;Max_cycle;Signal;HPM_P1;HPM_P2
2023/06/17 00:00:57;;;;;;;3.35;1.67;;;20.60;32.90;;;;;;2478148;55;20926;-75
2023/06/17 00:03:26;;;;;;;3.72;1.62;;;20.60;33.10;;;;;;2478692;55;20990;-76
2023/06/17 00:05:52;;;;;;;3.58;1.75;;;20.50;33.30;;;;;;2478455;55;20929;-78
2023/06/17 00:08:19;;;;;;;3.08;1.70;;;20.50;33.30;;;;;;2477370;55;20985;-76
2023/06/17 00:10:46;;;;;;;3.60;1.80;;;20.40;33.40;;;;;;2463063;55;20962;-76
2023/06/17 00:13:19;;;;;;;3.10;1.73;;;20.40;33.40;;;;;;2477850;55;21000;-76
2023/06/17 00:15:47;;;;;;;2.97;1.73;;;20.30;33.40;;;;;;2477535;55;20993;-77
2023/06/17 00:18:17;;;;;;;3.55;1.80;;;20.30;33.60;;;;;;2478730;55;21004;-77
2023/06/17 00:20:43;;;;;;;3.58;1.70;;;20.20;33.60;;;;;;2477752;55;21012;-76
2023/06/17 00:23:10;;;;;;;3.03;1.42;;;20.20;34.30;;;;;;2478424;55;20972;-75
2023/06/17 00:25:36;;;;;;;3.05;1.52;;;20.10;33.70;;;;;;2478483;55;21004;-75
2023/06/17 00:28:03;;;;;;;3.47;1.60;;;20.10;33.70;;;;;;2464308;55;20994;-76
2023/06/17 00:30:29;;;;;;;3.22;1.50;;;20.00;33.80;;;;;;2473098;55;20981;-77
2023/06/17 00:32:57;;;;;;;3.42;1.60;;;20.00;33.90;;;;;;2477345;55;21004;-75
2023/06/17 00:35:24;;;;;;;3.47;2.00;;;20.00;34.00;;;;;;2252225;56;20981;-77
2023/06/17 00:37:50;;;;;;;3.70;1.90;;;19.90;34.00;;;;;;2477793;55;20948;-75
2023/06/17 00:40:18;;;;;;;3.90;2.00;;;19.90;34.10;;;;;;2478350;55;20972;-76
2023/06/17 00:42:47;;;;;;;3.53;1.98;;;19.80;34.10;;;;;;2251543;56;20997;-77
2023/06/17 00:45:13;;;;;;;4.12;1.50;;;19.70;34.30;;;;;;2465961;55;21015;-77
2023/06/17 00:47:40;;;;;;;3.67;2.10;;;19.70;34.30;;;;;;2249329;56;21125;-76
2023/06/17 00:50:12;;;;;;;4.03;2.00;;;19.70;34.40;;;;;;2463093;55;21039;-76
2023/06/17 00:52:45;;;;;;;5.07;1.80;;;19.60;34.50;;;;;;2478187;55;21760;-79
2023/06/17 00:55:12;;;;;;;4.35;2.00;;;19.60;34.60;;;;;;2477591;55;21031;-78
2023/06/17 00:57:40;;;;;;;3.20;1.90;;;19.50;34.50;;;;;;2251711;56;20928;-76
2023/06/17 01:00:10;;;;;;;3.37;1.60;;;19.50;34.70;;;;;;2251202;56;20960;-75
2023/06/17 01:02:43;;;;;;;3.58;1.95;;;19.50;34.70;;;;;;2478383;55;20944;-76
2023/06/17 01:05:11;;;;;;;3.55;1.77;;;19.40;34.70;;;;;;2477820;55;20952;-75
2023/06/17 01:08:33;;;;;;;3.75;1.83;;;19.40;34.80;;;;;;2477986;55;21781;-76
2023/06/17 01:11:05;;;;;;;5.63;2.30;;;19.30;35.40;;;;;;2478368;55;20934;-76
2023/06/17 01:13:31;;;;;;;3.85;2.00;;;19.30;35.00;;;;;;2478707;55;20925;-75
2023/06/17 01:15:57;;;;;;;4.35;2.00;;;19.20;34.80;;;;;;2251508;56;21107;-75
2023/06/17 01:18:25;;;;;;;3.83;2.10;;;19.20;35.00;;;;;;2477048;55;21069;-75
2023/06/17 01:20:55;;;;;;;4.47;2.25;;;19.10;35.00;;;;;;2477691;55;21266;-75
2023/06/17 01:23:23;;;;;;;3.85;1.90;;;19.10;35.20;;;;;;2477850;55;20993;-75
2023/06/17 01:25:51;;;;;;;4.25;1.85;;;19.10;35.20;;;;;;2477266;55;20941;-76
2023/06/17 01:28:19;;;;;;;4.20;1.90;;;19.10;35.30;;;;;;2477703;55;21020;-76
2023/06/17 01:30:47;;;;;;;3.75;1.98;;;19.00;35.30;;;;;;2477916;55;21020;-76
2023/06/17 01:33:14;;;;;;;3.62;2.10;;;19.00;35.40;;;;;;2477589;55;20964;-75
2023/06/17 01:35:46;;;;;;;3.40;1.92;;;19.00;35.50;;;;;;2478916;55;20981;-77
2023/06/17 01:38:17;;;;;;;3.42;1.90;;;19.00;35.70;;;;;;2251803;56;21030;-75
2023/06/17 01:40:44;;;;;;;3.87;2.05;;;18.90;35.70;;;;;;2478338;55;20972;-76
2023/06/17 01:43:11;;;;;;;5.20;2.20;;;18.90;35.60;;;;;;2476601;55;21457;-77
2023/06/17 01:45:39;;;;;;;3.67;1.85;;;18.90;35.70;;;;;;2477966;55;20949;-78
2023/06/17 01:48:07;;;;;;;3.15;1.65;;;18.80;35.70;;;;;;2478287;55;21384;-75
2023/06/17 01:50:33;;;;;;;4.07;2.00;;;18.80;35.80;;;;;;2440052;56;20976;-76
2023/06/17 01:53:01;;;;;;;3.25;1.80;;;18.70;35.80;;;;;;2251608;56;21013;-75
2023/06/17 01:55:27;;;;;;;3.08;1.65;;;18.70;35.80;;;;;;2478330;55;21401;-78
2023/06/17 01:57:53;;;;;;;4.57;2.25;;;18.70;35.90;;;;;;2477634;55;21853;-75
2023/06/17 02:00:20;;;;;;;3.22;1.80;;;18.70;36.00;;;;;;2477695;55;20956;-77
2023/06/17 02:02:47;;;;;;;3.08;1.70;;;18.60;36.00;;;;;;2478165;55;21796;-75
2023/06/17 02:05:15;;;;;;;3.30;2.03;;;18.60;36.10;;;;;;2251876;56;20984;-78
2023/06/17 02:07:42;;;;;;;3.75;2.05;;;18.60;36.20;;;;;;2477870;55;20952;-75
2023/06/17 02:10:10;;;;;;;3.92;2.20;;;18.60;36.20;;;;;;2477985;55;21013;-77
2023/06/17 02:12:36;;;;;;;8.50;2.05;;;18.60;36.30;;;;;;2478085;55;21026;-76
2023/06/17 02:15:04;;;;;;;3.50;1.90;;;18.50;36.20;;;;;;2478281;55;20996;-75
2023/06/17 02:17:32;;;;;;;3.78;2.10;;;18.50;36.30;;;;;;2252468;56;20985;-76
2023/06/17 02:20:05;;;;;;;4.37;1.92;;;18.50;36.40;;;;;;2467749;55;21087;-76
2023/06/17 02:22:32;;;;;;;3.87;1.80;;;18.50;36.50;;;;;;2473960;55;20989;-78
2023/06/17 02:24:58;;;;;;;3.22;1.77;;;18.50;36.60;;;;;;2478082;55;20948;-75
2023/06/17 02:27:28;;;;;;;3.10;1.80;;;18.40;36.60;;;;;;2477673;55;21008;-77
2023/06/17 02:29:57;;;;;;;4.12;1.87;;;18.40;36.60;;;;;;2478738;55;20925;-76
2023/06/17 02:32:28;;;;;;;3.80;1.80;;;18.40;36.60;;;;;;2478128;55;20953;-75
2023/06/17 02:34:57;;;;;;;3.03;1.60;;;18.30;36.60;;;;;;2251413;56;21020;-76
2023/06/17 02:37:24;;;;;;;3.25;1.73;;;18.30;36.70;;;;;;2477951;55;20972;-77
2023/06/17 02:39:51;;;;;;;3.25;1.83;;;18.30;36.70;;;;;;2477658;55;21052;-76
2023/06/17 02:42:19;;;;;;;3.90;2.20;;;18.30;36.80;;;;;;2477527;55;20965;-75
2023/06/17 02:44:45;;;;;;;4.18;2.00;;;18.20;36.80;;;;;;2478339;55;21520;-77
2023/06/17 02:47:13;;;;;;;3.97;2.05;;;18.20;36.90;;;;;;2478396;55;20993;-75
2023/06/17 02:49:40;;;;;;;3.28;2.00;;;18.20;37.20;;;;;;2478110;55;20989;-75
2023/06/17 02:52:07;;;;;;;4.10;1.90;;;18.10;37.10;;;;;;2252510;56;21029;-75
2023/06/17 02:54:33;;;;;;;3.67;2.12;;;18.10;37.20;;;;;;2478444;55;20961;-76
2023/06/17 02:57:00;;;;;;;3.90;2.30;;;18.10;37.20;;;;;;2462468;55;20978;-76
2023/06/17 02:59:26;;;;;;;3.37;1.90;;;18.10;37.30;;;;;;2478443;55;21549;-75
2023/06/17 03:01:53;;;;;;;4.80;2.28;;;18.10;37.30;;;;;;2477874;55;20972;-76
2023/06/17 03:04:22;;;;;;;4.15;2.10;;;18.00;37.30;;;;;;2478688;55;20989;-76
2023/06/17 03:06:53;;;;;;;3.40;1.90;;;18.00;37.50;;;;;;2478007;55;20957;-75
2023/06/17 03:09:20;;;;;;;3.87;1.80;;;18.00;37.70;;;;;;2479043;55;20989;-77
2023/06/17 03:11:47;;;;;;;3.45;1.80;;;18.00;37.80;;;;;;2478345;55;20929;-76
2023/06/17 03:14:19;;;;;;;3.30;1.90;;;17.90;37.70;;;;;;2470634;55;20971;-75
2023/06/17 03:16:46;;;;;;;3.47;2.00;;;17.90;37.70;;;;;;2471555;55;20945;-75
2023/06/17 03:19:14;;;;;;;3.92;2.20;;;17.90;37.80;;;;;;2478204;55;20925;-78
2023/06/17 03:21:42;;;;;;;4.85;2.30;;;17.80;37.80;;;;;;2466710;55;21062;-75
2023/06/17 03:24:09;;;;;;;4.30;1.95;;;17.80;37.80;;;;;;2474420;55;21009;-75
2023/06/17 03:26:35;;;;;;;3.95;2.10;;;17.80;37.80;;;;;;2462700;55;21809;-75
2023/06/17 03:29:03;;;;;;;4.80;2.10;;;17.80;37.90;;;;;;2478028;55;20984;-76
2023/06/17 03:31:29;;;;;;;3.70;1.95;;;17.80;38.00;;;;;;2478451;55;21016;-75
2023/06/17 03:33:58;;;;;;;4.40;1.85;;;17.70;38.10;;;;;;2478088;55;21021;-75
2023/06/17 03:36:25;;;;;;;3.10;1.73;;;17.70;38.10;;;;;;2251194;56;21032;-75
2023/06/17 03:38:53;;;;;;;2.97;1.67;;;17.70;38.10;;;;;;2478022;55;20945;-75
2023/06/17 03:41:19;;;;;;;3.70;2.12;;;17.70;38.20;;;;;;2477961;55;21433;-75
2023/06/17 03:43:45;;;;;;;3.80;2.05;;;17.70;38.20;;;;;;2477320;55;21017;-77
2023/06/17 03:46:12;;;;;;;3.80;2.03;;;17.70;38.30;;;;;;2466577;55;20955;-76
2023/06/17 03:48:39;;;;;;;4.35;2.30;;;17.60;38.30;;;;;;2470440;55;20991;-75
2023/06/17 03:51:06;;;;;;;3.50;2.12;;;17.60;38.40;;;;;;2463502;55;21175;-75
2023/06/17 03:53:34;;;;;;;3.67;2.10;;;17.60;38.50;;;;;;2465158;55;21009;-75
2023/06/17 03:56:04;;;;;;;3.20;1.87;;;17.60;38.60;;;;;;2478159;55;21101;-75
2023/06/17 03:58:31;;;;;;;4.28;1.83;;;17.60;38.70;;;;;;2475264;55;20988;-76
2023/06/17 04:00:57;;;;;;;4.05;2.15;;;17.60;38.80;;;;;;2478413;55;21712;-75
2023/06/17 04:03:26;;;;;;;3.62;2.15;;;17.50;38.70;;;;;;2465512;55;21711;-76
2023/06/17 04:05:54;;;;;;;6.12;2.17;;;17.50;38.80;;;;;;2475426;55;21012;-75
2023/06/17 04:08:23;;;;;;;3.92;2.30;;;17.50;38.80;;;;;;2478218;55;20929;-75
2023/06/17 04:10:49;;;;;;;3.53;2.22;;;17.50;38.90;;;;;;2478017;55;21682;-76
2023/06/17 04:13:16;;;;;;;3.65;2.10;;;17.50;38.90;;;;;;2477555;55;21028;-74
2023/06/17 04:15:42;;;;;;;3.70;2.05;;;17.50;39.00;;;;;;2478275;55;20996;-75
2023/06/17 04:18:10;;;;;;;4.05;2.35;;;17.40;39.10;;;;;;2478515;55;21009;-77
2023/06/17 04:20:37;;;;;;;4.32;2.53;;;17.40;39.20;;;;;;2477908;55;21036;-79
2023/06/17 04:23:04;;;;;;;3.62;2.17;;;17.40;39.20;;;;;;2478027;55;21016;-74
2023/06/17 04:25:32;;;;;;;3.72;2.37;;;17.40;39.30;;;;;;2477726;55;20948;-76
2023/06/17 04:28:01;;;;;;;5.45;2.37;;;17.50;39.40;;;;;;2251054;57;21054;-78
2023/06/17 04:30:32;;;;;;;4.05;2.10;;;17.40;39.40;;;;;;2468108;55;20969;-76
2023/06/17 04:33:02;;;;;;;3.50;2.20;;;17.40;39.60;;;;;;2478449;55;21088;-75
2023/06/17 04:35:28;;;;;;;3.72;2.30;;;17.40;39.80;;;;;;2477789;55;20941;-77
2023/06/17 04:38:03;;;;;;;4.30;2.42;;;17.40;39.70;;;;;;2478147;55;20976;-76
2023/06/17 04:40:32;;;;;;;4.55;2.37;;;17.40;39.90;;;;;;2477803;55;21543;-75
2023/06/17 04:42:59;;;;;;;3.92;2.17;;;17.40;39.90;;;;;;2477332;55;21572;-75
2023/06/17 04:45:27;;;;;;;3.60;2.30;;;17.50;40.00;;;;;;2477145;55;20948;-77
2023/06/17 04:47:53;;;;;;;4.35;2.28;;;17.50;40.00;;;;;;2477577;55;21001;-75
2023/06/17 04:50:20;;;;;;;4.50;2.65;;;17.50;40.10;;;;;;2238690;57;20978;-75
2023/06/17 04:52:53;;;;;;;4.72;2.45;;;17.50;40.30;;;;;;2251428;56;20924;-78
2023/06/17 04:55:21;;;;;;;4.47;2.33;;;17.50;40.40;;;;;;2479339;55;20968;-75
2023/06/17 04:57:48;;;;;;;3.60;2.10;;;17.50;40.50;;;;;;2478306;55;21000;-75
2023/06/17 05:00:16;;;;;;;3.50;1.85;;;17.60;41.20;;;;;;2478671;55;20948;-75
2023/06/17 05:02:45;;;;;;;3.50;2.25;;;17.60;40.70;;;;;;2439449;56;20971;-75
2023/06/17 05:05:11;;;;;;;4.15;2.50;;;17.60;40.80;;;;;;2242118;56;21059;-74
2023/06/17 05:07:39;;;;;;;5.95;3.40;;;17.60;40.90;;;;;;2478071;55;21108;-75
2023/06/17 05:10:06;;;;;;;4.65;2.72;;;17.70;41.00;;;;;;2463602;55;21019;-75
2023/06/17 05:12:32;;;;;;;4.78;2.87;;;17.70;41.00;;;;;;2468414;55;20982;-75
2023/06/17 05:15:03;;;;;;;4.45;2.55;;;17.80;41.00;;;;;;2472947;55;21017;-75
2023/06/17 05:17:30;;;;;;;5.65;2.53;;;17.80;41.20;;;;;;2478338;55;20969;-75
2023/06/17 05:19:56;;;;;;;4.50;3.12;;;17.80;41.20;;;;;;2476344;55;21385;-76
2023/06/17 05:22:23;;;;;;;6.05;3.08;;;17.90;41.50;;;;;;2445503;56;21034;-75
2023/06/17 05:24:50;;;;;;;4.15;2.72;;;17.90;41.70;;;;;;2464602;55;20992;-75
2023/06/17 05:27:16;;;;;;;4.05;2.42;;;18.00;41.80;;;;;;2478353;55;20956;-75
2023/06/17 05:29:43;;;;;;;6.43;2.80;;;18.00;41.80;;;;;;2478299;55;21369;-77
2023/06/17 05:32:09;;;;;;;5.93;2.42;;;18.10;41.80;;;;;;2478968;55;20952;-75
2023/06/17 05:34:35;;;;;;;5.05;2.70;;;18.20;41.90;;;;;;2478418;55;20969;-77
2023/06/17 05:37:02;;;;;;;5.70;2.90;;;18.20;42.00;;;;;;2478887;55;20937;-75
2023/06/17 05:39:30;;;;;;;4.10;2.70;;;18.20;42.10;;;;;;2464193;55;21070;-77
2023/06/17 05:41:58;;;;;;;4.60;2.62;;;18.30;42.20;;;;;;2478644;55;20994;-75
2023/06/17 05:44:25;;;;;;;4.78;3.00;;;18.40;42.50;;;;;;2478908;55;20993;-75
2023/06/17 05:46:51;;;;;;;4.70;3.03;;;18.40;42.50;;;;;;2246978;56;21857;-76
2023/06/17 05:49:18;;;;;;;4.78;2.70;;;18.50;42.60;;;;;;2474960;55;20936;-75
2023/06/17 05:51:46;;;;;;;3.95;2.67;;;18.60;42.70;;;;;;2480772;55;21369;-76
2023/06/17 05:54:16;;;;;;;4.80;3.15;;;18.70;42.80;;;;;;2481697;55;21025;-76
2023/06/17 05:56:43;;;;;;;4.57;2.90;;;18.80;42.80;;;;;;2478549;55;20964;-76
2023/06/17 05:59:11;;;;;;;5.80;3.10;;;18.80;42.80;;;;;;2253347;56;20925;-76
2023/06/17 06:01:38;;;;;;;4.53;3.00;;;19.00;43.00;;;;;;2479122;55;20937;-77
2023/06/17 06:04:05;;;;;;;7.53;3.67;;;19.00;42.90;;;;;;2479883;55;20965;-75
2023/06/17 06:06:32;;;;;;;4.72;2.80;;;19.10;43.10;;;;;;2479317;55;21397;-77
2023/06/17 06:09:00;;;;;;;6.60;2.92;;;19.30;43.20;;;;;;2479520;55;20956;-76
2023/06/17 06:11:30;;;;;;;5.10;3.10;;;19.30;43.30;;;;;;2479003;55;21004;-76
2023/06/17 06:13:59;;;;;;;4.55;2.95;;;19.40;43.40;;;;;;2478872;55;21709;-76
2023/06/17 06:16:25;;;;;;;4.15;2.72;;;19.50;43.50;;;;;;2478363;55;21037;-75
2023/06/17 06:18:52;;;;;;;4.10;2.80;;;19.60;43.40;;;;;;2479085;55;20945;-76
2023/06/17 06:21:18;;;;;;;4.15;2.70;;;19.70;43.40;;;;;;2478820;55;20937;-78
2023/06/17 06:23:45;;;;;;;5.50;3.47;;;19.80;43.50;;;;;;2478231;55;20956;-77
2023/06/17 06:26:12;;;;;;;5.40;2.87;;;19.90;43.30;;;;;;2478565;55;21398;-75
2023/06/17 06:28:40;;;;;;;5.18;3.35;;;20.00;43.30;;;;;;2478242;55;20952;-75
2023/06/17 06:31:09;;;;;;;4.32;2.87;;;20.10;43.70;;;;;;2478593;55;20977;-76
2023/06/17 06:33:38;;;;;;;4.70;2.95;;;20.20;43.80;;;;;;2477324;55;22033;-78
2023/06/17 06:36:05;;;;;;;5.57;3.12;;;20.20;43.60;;;;;;2465215;55;21015;-76
2023/06/17 06:38:37;;;;;;;8.13;3.10;;;20.30;43.30;;;;;;2443161;55;20929;-76
2023/06/17 06:41:03;;;;;;;5.93;3.17;;;20.50;43.30;;;;;;2479248;55;21509;-76
2023/06/17 06:43:30;;;;;;;7.85;3.37;;;20.60;43.10;;;;;;2252679;56;21446;-75
2023/06/17 06:45:59;;;;;;;6.35;3.80;;;20.70;43.30;;;;;;2252663;56;21790;-75
2023/06/17 06:48:25;;;;;;;4.90;3.40;;;20.80;43.40;;;;;;2478785;55;20960;-76
2023/06/17 06:50:52;;;;;;;6.95;3.42;;;20.90;43.30;;;;;;2462605;55;21334;-75
2023/06/17 06:53:23;;;;;;;6.37;3.60;;;21.10;43.10;;;;;;2478556;55;20952;-74
2023/06/17 06:55:50;;;;;;;5.07;3.08;;;21.10;42.70;;;;;;2478838;55;20973;-77
2023/06/17 06:58:17;;;;;;;4.78;2.85;;;21.30;42.60;;;;;;2479322;55;20948;-73
2023/06/17 07:00:52;;;;;;;5.82;3.33;;;21.40;42.70;;;;;;2252180;56;20972;-76
2023/06/17 07:03:19;;;;;;;5.12;3.53;;;21.50;42.80;;;;;;2468213;55;20959;-75
2023/06/17 07:05:46;;;;;;;5.80;3.42;;;21.60;42.80;;;;;;2473924;55;20996;-76
2023/06/17 07:08:16;;;;;;;5.85;3.50;;;21.70;42.70;;;;;;2252653;56;20936;-77
2023/06/17 07:10:43;;;;;;;6.22;3.50;;;21.80;42.40;;;;;;2478929;55;20953;-76
2023/06/17 07:13:11;;;;;;;6.45;3.40;;;21.90;42.10;;;;;;2478684;55;20989;-76
2023/06/17 07:15:37;;;;;;;6.25;3.80;;;22.00;42.00;;;;;;2478257;55;20949;-75
2023/06/17 07:18:07;;;;;;;6.00;3.67;;;22.10;42.20;;;;;;2478486;55;21040;-74
2023/06/17 07:20:33;;;;;;;5.18;3.42;;;22.30;42.20;;;;;;2251995;56;21020;-75
2023/06/17 07:23:01;;;;;;;6.35;3.72;;;22.40;42.20;;;;;;2478644;55;21013;-73
2023/06/17 07:25:28;;;;;;;5.57;3.58;;;22.50;42.40;;;;;;2478693;55;20957;-74
2023/06/17 07:27:59;;;;;;;6.85;3.80;;;22.60;42.40;;;;;;2251664;56;20973;-74
2023/06/17 07:30:27;;;;;;;5.72;3.60;;;22.70;42.50;;;;;;2252008;56;20953;-75
2023/06/17 07:32:53;;;;;;;7.25;4.12;;;22.80;42.30;;;;;;2478091;55;20985;-75
2023/06/17 07:35:23;;;;;;;6.32;3.35;;;22.90;42.40;;;;;;2477878;55;21050;-74
2023/06/17 07:37:50;;;;;;;4.37;2.90;;;23.00;42.30;;;;;;2243289;56;21019;-76
2023/06/17 07:40:17;;;;;;;5.22;3.45;;;23.10;42.00;;;;;;2249603;56;21063;-74
2023/06/17 07:42:43;;;;;;;5.70;3.40;;;23.20;41.80;;;;;;2468882;55;20977;-73
2023/06/17 07:45:12;;;;;;;3.90;2.70;;;23.40;41.70;;;;;;2251790;56;20933;-77
2023/06/17 07:47:39;;;;;;;4.87;3.00;;;23.50;41.50;;;;;;2252130;56;20987;-73
2023/06/17 07:50:08;;;;;;;4.65;2.95;;;23.60;41.50;;;;;;2478496;55;20957;-74
2023/06/17 07:52:41;;;;;;;5.32;3.03;;;23.70;41.70;;;;;;2251688;56;21024;-73
2023/06/17 07:55:10;;;;;;;;;;;23.80;41.40;;;;;;2473892;55;21363;-76
2023/06/17 07:57:37;;;;;;;4.43;2.50;;;24.00;41.30;;;;;;2471851;55;20310;-76
2023/06/17 08:00:14;;;;;;;6.47;3.03;;;24.00;41.00;;;;;;2252121;56;21040;-74
2023/06/17 08:02:42;;;;;;;5.03;3.08;;;24.10;40.80;;;;;;2477756;55;20989;-74
2023/06/17 08:05:09;;;;;;;5.47;3.25;;;24.20;40.70;;;;;;2478515;55;21056;-75
2023/06/17 08:07:37;;;;;;;4.72;3.60;;;24.30;41.00;;;;;;2477660;55;21028;-72
2023/06/17 08:10:10;;;;;;;4.85;3.53;;;24.40;41.00;;;;;;2251865;56;20976;-74
2023/06/17 08:12:36;;;;;;;5.03;3.30;;;24.50;41.10;;;;;;2477331;55;20968;-76
2023/06/17 08:15:05;;;;;;;4.50;3.00;;;24.60;41.10;;;;;;2247975;56;20991;-75
2023/06/17 08:17:35;;;;;;;4.50;2.90;;;24.70;40.80;;;;;;2228690;56;21010;-77
2023/06/17 08:20:04;;;;;;;5.95;2.90;;;24.80;40.50;;;;;;2467288;55;21059;-77
2023/06/17 08:22:32;;;;;;;6.28;3.42;;;24.90;40.60;;;;;;2467786;55;20972;-77
2023/06/17 08:24:58;;;;;;;4.55;2.90;;;24.90;40.40;;;;;;2478211;55;21528;-75
2023/06/17 08:27:29;;;;;;;4.62;3.22;;;25.10;40.40;;;;;;2478349;55;21025;-74
2023/06/17 08:29:58;;;;;;;5.10;3.12;;;25.20;40.50;;;;;;2478309;55;21013;-76
2023/06/17 08:32:25;;;;;;;4.93;2.95;;;25.20;40.30;;;;;;2478286;55;21401;-75
2023/06/17 08:34:51;;;;;;;4.28;2.65;;;25.40;40.20;;;;;;2478197;55;21095;-74
2023/06/17 08:37:17;;;;;;;4.40;3.10;;;25.50;40.00;;;;;;2252044;56;21991;-77
2023/06/17 08:39:44;;;;;;;4.60;3.10;;;25.60;39.90;;;;;;2243323;56;21746;-79
2023/06/17 08:42:10;;;;;;;7.10;3.10;;;25.70;39.80;;;;;;2477259;55;21425;-74
2023/06/17 08:44:38;;;;;;;4.62;2.90;;;25.70;39.70;;;;;;2477568;55;21004;-75
2023/06/17 08:47:10;;;;;;;4.10;2.73;;;25.90;39.80;;;;;;2479161;55;20993;-75
2023/06/17 08:49:36;;;;;;;4.37;2.97;;;26.00;39.70;;;;;;2477821;55;21694;-75
2023/06/17 08:52:05;;;;;;;5.28;3.28;;;26.10;39.50;;;;;;2478839;55;20921;-74
2023/06/17 08:54:40;;;;;;;4.60;2.62;;;26.20;39.50;;;;;;2478242;55;21020;-75
2023/06/17 08:57:13;;;;;;;4.80;3.37;;;26.20;39.30;;;;;;2479288;55;21920;-77
2023/06/17 08:59:40;;;;;;;5.00;3.25;;;26.40;39.20;;;;;;2252041;56;21012;-74
2023/06/17 09:02:07;;;;;;;4.93;3.17;;;26.50;39.30;;;;;;2478886;55;21333;-75
2023/06/17 09:04:36;;;;;;;4.82;3.10;;;26.60;39.10;;;;;;2477947;55;20985;-74
2023/06/17 09:07:07;;;;;;;4.53;3.08;;;26.70;39.30;;;;;;2251467;56;21943;-75
2023/06/17 09:09:35;;;;;;;5.15;3.25;;;26.70;39.00;;;;;;2477539;55;21013;-75
2023/06/17 09:12:06;;;;;;;4.22;3.17;;;26.80;39.00;;;;;;2478337;55;21448;-74
2023/06/17 09:14:36;;;;;;;4.30;3.08;;;26.90;39.10;;;;;;2477743;55;22184;-74
2023/06/17 09:17:02;;;;;;;7.53;3.40;;;27.00;39.10;;;;;;2478390;55;21032;-76
2023/06/17 09:19:32;;;;;;;5.37;3.35;;;27.10;39.30;;;;;;2477880;55;21036;-75
2023/06/17 09:22:06;;;;;;;6.97;2.92;;;27.20;39.10;;;;;;2251870;56;21016;-76
2023/06/17 09:24:32;;;;;;;4.68;2.95;;;27.20;38.80;;;;;;2477761;55;20988;-75
2023/06/17 09:26:59;;;;;;;5.37;3.20;;;27.30;38.70;;;;;;2251354;56;20997;-76
2023/06/17 09:29:29;;;;;;;4.70;3.22;;;27.40;38.70;;;;;;2477992;55;20961;-74
2023/06/17 09:31:55;;;;;;;4.00;2.87;;;27.50;38.50;;;;;;2477826;55;21043;-75
2023/06/17 09:34:22;;;;;;;6.80;2.92;;;27.50;38.10;;;;;;2478694;55;21020;-76
2023/06/17 09:37:03;;;;;;;4.30;3.00;;;27.70;37.70;;;;;;2477416;55;21040;-75
2023/06/17 09:39:33;;;;;;;5.37;3.50;;;27.80;37.50;;;;;;2251999;56;21047;-75
2023/06/17 09:42:08;;;;;;;3.90;2.58;;;27.80;37.60;;;;;;2478143;55;20961;-76
2023/06/17 09:44:38;;;;;;;4.15;2.92;;;27.90;37.20;;;;;;2251722;56;20969;-74
2023/06/17 09:47:07;;;;;;;4.28;2.80;;;28.00;37.40;;;;;;2478637;55;20965;-75
2023/06/17 09:49:36;;;;;;;6.15;2.87;;;28.00;37.50;;;;;;2251307;56;21538;-76
2023/06/17 09:52:08;;;;;;;4.07;2.67;;;28.10;37.20;;;;;;2478082;55;20993;-76
2023/06/17 09:54:34;;;;;;;4.43;2.67;;;28.20;37.70;;;;;;2477046;55;20961;-75
2023/06/17 09:57:03;;;;;;;4.18;2.65;;;28.30;36.90;;;;;;2478287;55;20925;-77
2023/06/17 09:59:30;;;;;;;3.70;2.65;;;28.30;37.00;;;;;;2477647;55;21016;-77
2023/06/17 10:01:56;;;;;;;3.65;2.45;;;28.40;36.70;;;;;;2477904;55;21432;-77
2023/06/17 10:04:23;;;;;;;4.35;2.75;;;28.50;36.60;;;;;;2246459;56;20954;-76
2023/06/17 10:06:49;;;;;;;4.12;2.55;;;28.60;36.50;;;;;;2472194;55;21000;-77
2023/06/17 10:09:16;;;;;;;4.05;2.70;;;28.70;36.20;;;;;;2478067;55;21040;-75
2023/06/17 10:11:45;;;;;;;3.72;2.50;;;28.80;35.90;;;;;;2477275;55;21056;-75
2023/06/17 10:14:35;;;;;;;4.95;2.85;;;28.90;35.50;;;;;;2478033;55;21020;-75
2023/06/17 10:17:05;;;;;;;4.40;2.67;;;29.00;35.20;;;;;;2477802;55;20988;-74
2023/06/17 10:19:32;;;;;;;5.78;3.17;;;29.10;35.40;;;;;;2476876;55;20980;-74
2023/06/17 10:21:59;;;;;;;4.45;2.67;;;29.20;35.40;;;;;;2462396;55;21864;-76
2023/06/17 10:24:25;;;;;;;3.95;2.75;;;29.20;35.10;;;;;;2478061;55;20937;-74
2023/06/17 10:26:52;;;;;;;6.07;2.67;;;29.30;34.80;;;;;;2471144;55;20966;-76
2023/06/17 10:29:19;;;;;;;5.03;3.12;;;29.40;34.50;;;;;;2468910;55;20977;-75
2023/06/17 10:31:48;;;;;;;4.30;3.00;;;29.40;34.50;;;;;;2477108;55;20996;-74
2023/06/17 10:34:15;;;;;;;4.28;2.53;;;29.50;34.40;;;;;;2477243;55;20957;-74
2023/06/17 10:36:41;;;;;;;5.47;2.50;;;29.60;34.40;;;;;;2476873;55;20960;-75
2023/06/17 10:39:13;;;;;;;4.47;2.58;;;29.70;34.30;;;;;;2465124;55;21110;-74
2023/06/17 10:42:02;;;;;;;3.35;2.12;;;29.70;33.80;;;;;;2475020;55;21021;-74
2023/06/17 10:45:10;;;;;;;3.70;2.28;;;29.80;32.80;;;;;;2477977;55;21036;-74
2023/06/17 10:47:40;;;;;;;3.50;2.15;;;29.90;32.90;;;;;;2477318;55;20996;-75
2023/06/17 10:50:07;;;;;;;5.87;2.58;;;30.00;33.20;;;;;;2251092;56;20952;-75
2023/06/17 10:52:33;;;;;;;3.80;2.40;;;30.00;32.70;;;;;;2477278;55;21035;-75
2023/06/17 10:55:00;;;;;;;3.60;2.35;;;30.10;32.50;;;;;;2251332;56;21352;-73
2023/06/17 10:57:33;;;;;;;4.18;2.45;;;30.20;32.20;;;;;;2252917;56;20953;-76
2023/06/17 11:00:08;;;;;;;4.57;2.60;;;30.20;31.60;;;;;;2474184;55;21071;-74
2023/06/17 11:02:37;;;;;;;3.53;2.10;;;30.40;31.00;;;;;;2242678;56;20984;-76
2023/06/17 11:05:05;;;;;;;3.60;2.20;;;30.30;31.30;;;;;;2465644;55;20987;-75
2023/06/17 11:07:31;;;;;;;4.45;2.12;;;30.40;31.20;;;;;;2474474;55;21481;-76
2023/06/17 11:10:00;;;;;;;4.85;1.90;;;30.40;30.70;;;;;;2251111;56;21931;-74
2023/06/17 11:12:27;;;;;;;3.60;2.03;;;30.40;30.40;;;;;;2240271;56;21319;-74
2023/06/17 11:14:54;;;;;;;3.42;1.83;;;30.50;30.40;;;;;;2234134;56;20957;-74
2023/06/17 11:17:24;;;;;;;3.00;1.80;;;30.60;30.60;;;;;;2251984;56;20997;-73
2023/06/17 11:19:50;;;;;;;4.28;2.00;;;30.60;30.30;;;;;;2476986;55;20982;-74
2023/06/17 11:22:16;;;;;;;3.72;2.03;;;30.60;30.00;;;;;;2465682;55;20962;-74
2023/06/17 11:24:45;;;;;;;3.65;1.85;;;30.60;30.00;;;;;;2475798;55;20956;-76
2023/06/17 11:27:12;;;;;;;4.22;2.15;;;30.60;29.90;;;;;;2478166;55;21264;-75
2023/06/17 11:29:41;;;;;;;4.10;2.20;;;30.70;29.80;;;;;;2476459;55;21065;-76
2023/06/17 11:32:08;;;;;;;3.33;2.00;;;30.70;30.00;;;;;;2234485;57;21437;-74
2023/06/17 11:34:34;;;;;;;3.40;1.77;;;30.70;30.00;;;;;;2229001;56;20984;-75
2023/06/17 11:37:02;;;;;;;3.22;2.03;;;30.80;30.10;;;;;;2477818;55;20929;-75
2023/06/17 11:39:29;;;;;;;4.68;1.80;;;30.80;30.20;;;;;;2478163;55;20952;-77
2023/06/17 11:42:02;;;;;;;3.62;1.87;;;30.80;30.10;;;;;;2476399;55;20937;-77
2023/06/17 11:44:32;;;;;;;4.30;2.33;;;30.90;30.00;;;;;;2478243;55;21024;-76
2023/06/17 11:47:06;;;;;;;4.97;2.28;;;31.00;30.00;;;;;;2477721;55;21417;-76
2023/06/17 11:49:33;;;;;;;3.65;2.33;;;31.00;29.90;;;;;;2477997;55;20976;-75
2023/06/17 11:52:01;;;;;;;3.42;2.20;;;31.00;30.00;;;;;;2250736;56;21066;-77
2023/06/17 11:54:29;;;;;;;4.50;2.05;;;31.10;29.90;;;;;;2477729;55;21061;-76
2023/06/17 11:56:55;;;;;;;4.20;2.25;;;31.10;29.80;;;;;;2476972;55;21060;-77
2023/06/17 11:59:22;;;;;;;3.53;1.90;;;31.10;29.60;;;;;;2252494;56;21008;-74
2023/06/17 12:01:48;;;;;;;3.60;1.90;;;31.20;29.60;;;;;;2478249;55;21462;-76
2023/06/17 12:04:18;;;;;;;3.53;2.00;;;31.20;29.70;;;;;;2252081;56;20936;-76
2023/06/17 12:06:44;;;;;;;3.95;2.37;;;31.30;29.60;;;;;;2477935;55;21021;-75
2023/06/17 12:09:12;;;;;;;3.20;2.05;;;31.30;29.50;;;;;;2466924;55;21011;-77
2023/06/17 12:11:41;;;;;;;4.62;1.65;;;31.30;29.20;;;;;;2468945;55;21064;-76
2023/06/17 12:14:08;;;;;;;4.12;2.28;;;31.40;29.10;;;;;;2478123;55;21045;-75
2023/06/17 12:16:35;;;;;;;2.75;1.60;;;31.40;29.10;;;;;;2251185;56;20973;-76
2023/06/17 12:19:09;;;;;;;5.45;2.20;;;31.40;28.90;;;;;;2251732;56;20921;-75
2023/06/17 12:21:37;;;;;;;3.30;1.92;;;31.50;28.90;;;;;;2250913;56;21001;-76
2023/06/17 12:24:04;;;;;;;3.28;2.17;;;31.50;28.40;;;;;;2478227;55;21116;-75
2023/06/17 12:26:31;;;;;;;5.05;2.53;;;31.50;28.30;;;;;;2251923;56;21099;-75
2023/06/17 12:29:01;;;;;;;3.87;2.20;;;31.60;28.20;;;;;;2477970;55;20924;-76
2023/06/17 12:31:29;;;;;;;3.97;1.90;;;31.70;28.00;;;;;;2475782;55;20963;-76
2023/06/17 12:33:55;;;;;;;3.97;1.95;;;31.60;27.80;;;;;;2224628;57;21619;-75
2023/06/17 12:36:21;;;;;;;3.45;1.95;;;31.70;27.80;;;;;;2463809;55;20969;-76
2023/06/17 12:38:48;;;;;;;2.95;1.90;;;31.80;27.90;;;;;;2477791;55;21033;-75
2023/06/17 12:41:15;;;;;;;3.33;2.00;;;31.80;27.80;;;;;;2477001;55;20961;-75
2023/06/17 12:43:42;;;;;;;3.58;2.15;;;31.80;27.60;;;;;;2244303;56;20974;-75
2023/06/17 12:46:08;;;;;;;3.58;1.92;;;31.90;27.40;;;;;;2474274;55;20957;-75
2023/06/17 12:48:35;;;;;;;3.50;1.77;;;31.90;27.30;;;;;;2477546;55;21078;-73
2023/06/17 12:51:03;;;;;;;3.80;2.05;;;31.90;27.50;;;;;;2245571;56;20946;-75
2023/06/17 12:53:29;;;;;;;6.50;2.42;;;32.00;27.30;;;;;;2248416;56;20961;-75